sensor_id;sensor_type;location;lat;lon;timestamp;pressure;altitude;pressure_sealevel;temperature;humidity
18509;BME280;9383;50.928;12.116;2022-11-20T00:01:03;98534.75;;;-8.17;98.05
18509;BME280;9383;50.928;12.116;2022-11-20T00:03:29;98530.34;;;-8.20;98.00
18509;BME280;9383;50.928;12.116;2022-11-20T00:06:10;98534.66;;;-8.20;98.12
18509;BME280;9383;50.928;12.116;2022-11-20T00:08:37;98526.94;;;-8.20;98.26
18509;BME280;9383;50.928;12.116;2022-11-20T00:11:12;98528.63;;;-8.21;98.22
18509;BME280;9383;50.928;12.116;2022-11-20T00:13:39;98526.81;;;-8.23;98.44
18509;BME280;9383;50.928;12.116;2022-11-20T00:16:08;98514.75;;;-8.26;97.96
18509;BME280;9383;50.928;12.116;2022-11-20T00:18:36;98519.00;;;-8.26;98.26
18509;BME280;9383;50.928;12.116;2022-11-20T00:21:07;98515.56;;;-8.27;98.64
18509;BME280;9383;50.928;12.116;2022-11-20T00:23:34;98520.75;;;-8.25;98.66
18509;BME280;9383;50.928;12.116;2022-11-20T00:26:04;98513.00;;;-8.27;98.82
18509;BME280;9383;50.928;12.116;2022-11-20T00:28:31;98522.34;;;-8.29;98.76
18509;BME280;9383;50.928;12.116;2022-11-20T00:31:12;98526.63;;;-8.29;98.74
18509;BME280;9383;50.928;12.116;2022-11-20T00:33:39;98524.81;;;-8.32;98.65
18509;BME280;9383;50.928;12.116;2022-11-20T00:36:11;98527.38;;;-8.32;98.77
18509;BME280;9383;50.928;12.116;2022-11-20T00:38:38;98525.56;;;-8.35;98.69
18509;BME280;9383;50.928;12.116;2022-11-20T00:41:10;98529.84;;;-8.35;98.97
18509;BME280;9383;50.928;12.116;2022-11-20T00:43:37;98523.81;;;-8.36;98.79
18509;BME280;9383;50.928;12.116;2022-11-20T00:46:05;98527.22;;;-8.37;98.86
18509;BME280;9383;50.928;12.116;2022-11-20T00:48:33;98528.88;;;-8.39;98.69
18509;BME280;9383;50.928;12.116;2022-11-20T00:51:00;98525.38;;;-8.41;98.63
18509;BME280;9383;50.928;12.116;2022-11-20T00:53:27;98520.13;;;-8.44;98.51
18509;BME280;9383;50.928;12.116;2022-11-20T00:56:02;98522.66;;;-8.45;98.66
18509;BME280;9383;50.928;12.116;2022-11-20T00:58:31;98515.69;;;-8.48;98.48
18509;BME280;9383;50.928;12.116;2022-11-20T01:01:04;98511.38;;;-8.49;98.26
18509;BME280;9383;50.928;12.116;2022-11-20T01:03:35;98516.47;;;-8.52;98.40
18509;BME280;9383;50.928;12.116;2022-11-20T01:06:03;98519.03;;;-8.52;98.59
18509;BME280;9383;50.928;12.116;2022-11-20T01:08:33;98514.66;;;-8.55;98.58
18509;BME280;9383;50.928;12.116;2022-11-20T01:11:08;98510.34;;;-8.56;98.32
18509;BME280;9383;50.928;12.116;2022-11-20T01:13:36;98515.44;;;-8.57;98.42
18509;BME280;9383;50.928;12.116;2022-11-20T01:16:42;98514.47;;;-8.59;98.47
18509;BME280;9383;50.928;12.116;2022-11-20T01:19:12;98517.06;;;-8.59;98.31
18509;BME280;9383;50.928;12.116;2022-11-20T01:21:41;98512.75;;;-8.60;98.52
18509;BME280;9383;50.928;12.116;2022-11-20T01:24:12;98510.97;;;-8.63;98.62
18509;BME280;9383;50.928;12.116;2022-11-20T01:26:40;98511.78;;;-8.64;98.61
18509;BME280;9383;50.928;12.116;2022-11-20T01:29:13;98512.63;;;-8.65;98.47
18509;BME280;9383;50.928;12.116;2022-11-20T01:31:40;98509.06;;;-8.69;98.88
18509;BME280;9383;50.928;12.116;2022-11-20T01:34:12;98508.13;;;-8.71;98.48
18509;BME280;9383;50.928;12.116;2022-11-20T01:36:40;98510.56;;;-8.74;98.42
18509;BME280;9383;50.928;12.116;2022-11-20T01:39:12;98510.47;;;-8.77;98.21
18509;BME280;9383;50.928;12.116;2022-11-20T01:41:40;98501.91;;;-8.78;98.63
18509;BME280;9383;50.928;12.116;2022-11-20T01:44:50;98496.69;;;-8.79;98.73
18509;BME280;9383;50.928;12.116;2022-11-20T01:47:38;98494.97;;;-8.80;98.49
18509;BME280;9383;50.928;12.116;2022-11-20T01:50:16;98498.34;;;-8.81;98.60
18509;BME280;9383;50.928;12.116;2022-11-20T01:53:06;98498.25;;;-8.84;98.07
18509;BME280;9383;50.928;12.116;2022-11-20T01:55:39;98505.97;;;-8.84;98.56
18509;BME280;9383;50.928;12.116;2022-11-20T01:58:06;98498.13;;;-8.87;98.40
18509;BME280;9383;50.928;12.116;2022-11-20T02:00:33;98495.50;;;-8.89;98.27
18509;BME280;9383;50.928;12.116;2022-11-20T02:03:03;98492.88;;;-8.91;98.53
18509;BME280;9383;50.928;12.116;2022-11-20T02:05:35;98491.13;;;-8.92;98.61
18509;BME280;9383;50.928;12.116;2022-11-20T02:08:04;98487.66;;;-8.94;98.59
18509;BME280;9383;50.928;12.116;2022-11-20T02:10:32;98489.28;;;-8.96;98.52
18509;BME280;9383;50.928;12.116;2022-11-20T02:12:59;98495.19;;;-8.98;98.71
18509;BME280;9383;50.928;12.116;2022-11-20T02:15:44;98486.56;;;-9.00;98.28
18509;BME280;9383;50.928;12.116;2022-11-20T02:18:14;98489.16;;;-8.99;98.54
18509;BME280;9383;50.928;12.116;2022-11-20T02:20:45;98483.16;;;-8.99;99.00
18509;BME280;9383;50.928;12.116;2022-11-20T02:23:28;98486.56;;;-9.00;98.84
18509;BME280;9383;50.928;12.116;2022-11-20T02:25:57;98490.69;;;-9.04;98.78
18509;BME280;9383;50.928;12.116;2022-11-20T02:28:24;98484.66;;;-9.05;99.16
18509;BME280;9383;50.928;12.116;2022-11-20T02:30:51;98488.94;;;-9.05;98.90
18509;BME280;9383;50.928;12.116;2022-11-20T02:33:17;98489.78;;;-9.06;99.14
18509;BME280;9383;50.928;12.116;2022-11-20T02:35:46;98486.28;;;-9.08;99.07
18509;BME280;9383;50.928;12.116;2022-11-20T02:38:15;98482.81;;;-9.09;99.47
18509;BME280;9383;50.928;12.116;2022-11-20T02:40:41;98486.31;;;-9.07;99.43
18509;BME280;9383;50.928;12.116;2022-11-20T02:43:09;98481.16;;;-9.08;99.55
18509;BME280;9383;50.928;12.116;2022-11-20T02:45:36;98476.00;;;-9.08;99.39
18509;BME280;9383;50.928;12.116;2022-11-20T02:48:02;98472.66;;;-9.06;99.51
18509;BME280;9383;50.928;12.116;2022-11-20T02:50:29;98476.00;;;-9.08;99.58
18509;BME280;9383;50.928;12.116;2022-11-20T02:52:56;98475.13;;;-9.09;99.52
18509;BME280;9383;50.928;12.116;2022-11-20T02:55:22;98481.97;;;-9.09;99.49
18509;BME280;9383;50.928;12.116;2022-11-20T02:57:48;98480.19;;;-9.10;99.61
18509;BME280;9383;50.928;12.116;2022-11-20T03:00:15;98475.03;;;-9.12;99.26
18509;BME280;9383;50.928;12.116;2022-11-20T03:02:42;98474.97;;;-9.13;99.03
18509;BME280;9383;50.928;12.116;2022-11-20T03:05:08;98472.28;;;-9.16;99.04
18509;BME280;9383;50.928;12.116;2022-11-20T03:07:35;98468.81;;;-9.17;99.55
18509;BME280;9383;50.928;12.116;2022-11-20T03:10:02;98469.72;;;-9.16;99.18
18509;BME280;9383;50.928;12.116;2022-11-20T03:12:28;98471.41;;;-9.17;99.24
18509;BME280;9383;50.928;12.116;2022-11-20T03:14:55;98466.22;;;-9.19;99.31
18509;BME280;9383;50.928;12.116;2022-11-20T03:17:22;98462.75;;;-9.21;99.38
18509;BME280;9383;50.928;12.116;2022-11-20T03:19:48;98463.56;;;-9.22;98.95
18509;BME280;9383;50.928;12.116;2022-11-20T03:22:18;98459.19;;;-9.24;99.43
18509;BME280;9383;50.928;12.116;2022-11-20T03:24:44;98461.75;;;-9.24;99.35
18509;BME280;9383;50.928;12.116;2022-11-20T03:27:11;98453.16;;;-9.25;99.38
18509;BME280;9383;50.928;12.116;2022-11-20T03:29:37;98448.84;;;-9.26;99.38
18509;BME280;9383;50.928;12.116;2022-11-20T03:32:04;98442.84;;;-9.26;99.21
18509;BME280;9383;50.928;12.116;2022-11-20T03:34:30;98438.53;;;-9.27;99.16
18509;BME280;9383;50.928;12.116;2022-11-20T03:36:57;98443.59;;;-9.29;99.16
18509;BME280;9383;50.928;12.116;2022-11-20T03:39:23;98441.88;;;-9.30;98.99
18509;BME280;9383;50.928;12.116;2022-11-20T03:41:50;98440.88;;;-9.34;99.10
18509;BME280;9383;50.928;12.116;2022-11-20T03:44:17;98444.25;;;-9.35;99.07
18509;BME280;9383;50.928;12.116;2022-11-20T03:46:44;98439.94;;;-9.36;99.58
18509;BME280;9383;50.928;12.116;2022-11-20T03:49:10;98435.69;;;-9.35;99.44
18509;BME280;9383;50.928;12.116;2022-11-20T03:51:37;98437.31;;;-9.37;99.43
18509;BME280;9383;50.928;12.116;2022-11-20T03:54:08;98445.91;;;-9.37;99.42
18509;BME280;9383;50.928;12.116;2022-11-20T03:56:37;98439.88;;;-9.37;99.55
18509;BME280;9383;50.928;12.116;2022-11-20T03:59:05;98432.97;;;-9.40;99.04
18509;BME280;9383;50.928;12.116;2022-11-20T04:01:34;98429.50;;;-9.40;98.73
18509;BME280;9383;50.928;12.116;2022-11-20T04:04:02;98438.91;;;-9.41;99.53
18509;BME280;9383;50.928;12.116;2022-11-20T04:06:33;98432.91;;;-9.41;98.97
18509;BME280;9383;50.928;12.116;2022-11-20T04:09:00;98430.25;;;-9.43;99.32
18509;BME280;9383;50.928;12.116;2022-11-20T04:11:32;98435.41;;;-9.43;99.47
18509;BME280;9383;50.928;12.116;2022-11-20T04:14:04;98441.34;;;-9.44;99.13
18509;BME280;9383;50.928;12.116;2022-11-20T04:16:34;98436.13;;;-9.47;99.28
18509;BME280;9383;50.928;12.116;2022-11-20T04:19:04;98436.88;;;-9.50;98.84
18509;BME280;9383;50.928;12.116;2022-11-20T04:21:31;98435.13;;;-9.51;99.20
18509;BME280;9383;50.928;12.116;2022-11-20T04:23:58;98422.28;;;-9.51;99.04
18509;BME280;9383;50.928;12.116;2022-11-20T04:26:26;98429.13;;;-9.51;99.43
18509;BME280;9383;50.928;12.116;2022-11-20T04:28:53;98429.13;;;-9.51;99.32
18509;BME280;9383;50.928;12.116;2022-11-20T04:31:22;98428.25;;;-9.52;99.19
18509;BME280;9383;50.928;12.116;2022-11-20T04:33:49;98428.22;;;-9.53;99.68
18509;BME280;9383;50.928;12.116;2022-11-20T04:36:21;98436.69;;;-9.54;99.57
18509;BME280;9383;50.928;12.116;2022-11-20T04:38:51;98423.00;;;-9.55;99.43
18509;BME280;9383;50.928;12.116;2022-11-20T04:41:20;98429.06;;;-9.53;100.00
18509;BME280;9383;50.928;12.116;2022-11-20T04:43:53;98423.94;;;-9.53;99.81
18509;BME280;9383;50.928;12.116;2022-11-20T04:46:26;98429.06;;;-9.53;99.97
18509;BME280;9383;50.928;12.116;2022-11-20T04:48:53;98425.66;;;-9.53;99.93
18509;BME280;9383;50.928;12.116;2022-11-20T04:51:20;98412.75;;;-9.55;99.58
18509;BME280;9383;50.928;12.116;2022-11-20T04:53:47;98422.94;;;-9.56;99.34
18509;BME280;9383;50.928;12.116;2022-11-20T04:56:14;98422.09;;;-9.57;99.94
18509;BME280;9383;50.928;12.116;2022-11-20T04:58:41;98422.91;;;-9.58;99.58
18509;BME280;9383;50.928;12.116;2022-11-20T05:01:14;98422.91;;;-9.58;99.86
18509;BME280;9383;50.928;12.116;2022-11-20T05:03:42;98431.34;;;-9.61;99.85
18509;BME280;9383;50.928;12.116;2022-11-20T05:06:12;98423.59;;;-9.62;99.39
18509;BME280;9383;50.928;12.116;2022-11-20T05:08:39;98421.03;;;-9.62;99.29
18509;BME280;9383;50.928;12.116;2022-11-20T05:11:12;98416.72;;;-9.63;99.97
18509;BME280;9383;50.928;12.116;2022-11-20T05:13:39;98415.84;;;-9.64;99.41
18509;BME280;9383;50.928;12.116;2022-11-20T05:16:11;98416.72;;;-9.63;100.00
18509;BME280;9383;50.928;12.116;2022-11-20T05:18:38;98414.97;;;-9.64;99.95
18509;BME280;9383;50.928;12.116;2022-11-20T05:21:06;98421.00;;;-9.64;99.83
18509;BME280;9383;50.928;12.116;2022-11-20T05:23:33;98414.03;;;-9.66;99.56
18509;BME280;9383;50.928;12.116;2022-11-20T05:26:00;98409.66;;;-9.69;99.79
18509;BME280;9383;50.928;12.116;2022-11-20T05:28:28;98397.66;;;-9.70;99.90
18509;BME280;9383;50.928;12.116;2022-11-20T05:30:55;98406.25;;;-9.69;99.67
18509;BME280;9383;50.928;12.116;2022-11-20T05:33:22;98403.69;;;-9.69;99.77
18509;BME280;9383;50.928;12.116;2022-11-20T05:35:49;98402.78;;;-9.70;99.93
18509;BME280;9383;50.928;12.116;2022-11-20T05:38:15;98408.81;;;-9.69;100.00
18509;BME280;9383;50.928;12.116;2022-11-20T05:40:42;98407.97;;;-9.68;99.95
18509;BME280;9383;50.928;12.116;2022-11-20T05:43:09;98408.75;;;-9.71;100.00
18509;BME280;9383;50.928;12.116;2022-11-20T05:45:36;98407.00;;;-9.72;99.90
18509;BME280;9383;50.928;12.116;2022-11-20T05:48:03;98415.44;;;-9.75;99.43
18509;BME280;9383;50.928;12.116;2022-11-20T05:50:30;98419.63;;;-9.77;99.77
18509;BME280;9383;50.928;12.116;2022-11-20T05:53:00;98411.03;;;-9.79;99.82
18509;BME280;9383;50.928;12.116;2022-11-20T05:55:27;98413.59;;;-9.79;99.91
18509;BME280;9383;50.928;12.116;2022-11-20T05:57:54;98416.16;;;-9.79;99.92
18509;BME280;9383;50.928;12.116;2022-11-20T06:00:21;98410.03;;;-9.82;99.65
18509;BME280;9383;50.928;12.116;2022-11-20T06:02:48;98409.16;;;-9.83;99.75
18509;BME280;9383;50.928;12.116;2022-11-20T06:05:14;98397.16;;;-9.84;99.26
18509;BME280;9383;50.928;12.116;2022-11-20T06:07:41;98399.72;;;-9.84;99.33
18509;BME280;9383;50.928;12.116;2022-11-20T06:10:08;98391.09;;;-9.86;99.78
18509;BME280;9383;50.928;12.116;2022-11-20T06:12:34;98397.03;;;-9.87;99.55
18509;BME280;9383;50.928;12.116;2022-11-20T06:15:01;98392.78;;;-9.86;99.65
18509;BME280;9383;50.928;12.116;2022-11-20T06:17:28;98388.50;;;-9.86;99.66
18509;BME280;9383;50.928;12.116;2022-11-20T06:19:54;98394.53;;;-9.85;100.00
18509;BME280;9383;50.928;12.116;2022-11-20T06:22:22;98385.94;;;-9.86;99.34
18509;BME280;9383;50.928;12.116;2022-11-20T06:24:48;98383.34;;;-9.87;99.32
18509;BME280;9383;50.928;12.116;2022-11-20T06:27:15;98394.47;;;-9.87;100.00
18509;BME280;9383;50.928;12.116;2022-11-20T06:29:42;98392.69;;;-9.90;99.40
18509;BME280;9383;50.928;12.116;2022-11-20T06:32:08;98397.81;;;-9.90;100.00
18509;BME280;9383;50.928;12.116;2022-11-20T06:34:35;98394.34;;;-9.90;99.47
18509;BME280;9383;50.928;12.116;2022-11-20T06:37:01;98402.06;;;-9.90;100.00
18509;BME280;9383;50.928;12.116;2022-11-20T06:39:28;98402.88;;;-9.91;99.71
18509;BME280;9383;50.928;12.116;2022-11-20T06:41:55;98403.69;;;-9.92;100.00
18509;BME280;9383;50.928;12.116;2022-11-20T06:44:25;98399.31;;;-9.95;99.61
18509;BME280;9383;50.928;12.116;2022-11-20T06:46:52;98412.09;;;-9.96;100.00
18509;BME280;9383;50.928;12.116;2022-11-20T06:49:19;98420.59;;;-9.97;99.75
18509;BME280;9383;50.928;12.116;2022-11-20T06:51:45;98409.53;;;-9.96;100.00
18509;BME280;9383;50.928;12.116;2022-11-20T06:54:12;98416.34;;;-9.97;99.44
18509;BME280;9383;50.928;12.116;2022-11-20T06:56:38;98412.09;;;-9.96;100.00
18509;BME280;9383;50.928;12.116;2022-11-20T06:59:06;98409.53;;;-9.96;100.00
18509;BME280;9383;50.928;12.116;2022-11-20T07:01:33;98406.19;;;-9.94;100.00
18509;BME280;9383;50.928;12.116;2022-11-20T07:04:00;98405.44;;;-9.91;100.00
18509;BME280;9383;50.928;12.116;2022-11-20T07:06:27;98408.94;;;-9.89;100.00
18509;BME280;9383;50.928;12.116;2022-11-20T07:08:53;98408.94;;;-9.89;100.00
18509;BME280;9383;50.928;12.116;2022-11-20T07:11:20;98405.59;;;-9.86;100.00
18509;BME280;9383;50.928;12.116;2022-11-20T07:13:47;98401.41;;;-9.84;100.00
18509;BME280;9383;50.928;12.116;2022-11-20T07:16:23;98396.38;;;-9.81;100.00
18509;BME280;9383;50.928;12.116;2022-11-20T07:18:50;98391.50;;;-9.75;100.00
18509;BME280;9383;50.928;12.116;2022-11-20T07:21:17;98404.50;;;-9.70;100.00
18509;BME280;9383;50.928;12.116;2022-11-20T07:23:44;98397.84;;;-9.65;100.00
18509;BME280;9383;50.928;12.116;2022-11-20T07:26:11;98404.03;;;-9.60;100.00
18509;BME280;9383;50.928;12.116;2022-11-20T07:28:38;98406.78;;;-9.54;100.00
18509;BME280;9383;50.928;12.116;2022-11-20T07:31:05;98409.91;;;-9.38;100.00
18509;BME280;9383;50.928;12.116;2022-11-20T07:33:33;98396.34;;;-9.10;100.00
18509;BME280;9383;50.928;12.116;2022-11-20T07:36:02;98387.50;;;-8.66;100.00
18509;BME280;9383;50.928;12.116;2022-11-20T07:38:29;98387.41;;;-8.14;100.00
18509;BME280;9383;50.928;12.116;2022-11-20T07:40:59;98375.31;;;-7.57;100.00
18509;BME280;9383;50.928;12.116;2022-11-20T07:43:28;98372.59;;;-6.98;100.00
18509;BME280;9383;50.928;12.116;2022-11-20T07:45:56;98361.22;;;-6.36;100.00
18509;BME280;9383;50.928;12.116;2022-11-20T07:48:29;98372.00;;;-5.72;100.00
18509;BME280;9383;50.928;12.116;2022-11-20T07:50:56;98364.50;;;-5.17;100.00
18509;BME280;9383;50.928;12.116;2022-11-20T07:53:24;98350.78;;;-4.63;100.00
18509;BME280;9383;50.928;12.116;2022-11-20T07:55:51;98361.00;;;-4.16;100.00
18509;BME280;9383;50.928;12.116;2022-11-20T07:58:22;98348.59;;;-3.74;100.00
18509;BME280;9383;50.928;12.116;2022-11-20T08:00:49;98350.78;;;-3.37;100.00
18509;BME280;9383;50.928;12.116;2022-11-20T08:03:15;98349.31;;;-3.10;100.00
18509;BME280;9383;50.928;12.116;2022-11-20T08:05:42;98346.97;;;-2.88;100.00
18509;BME280;9383;50.928;12.116;2022-11-20T08:08:08;98341.06;;;-2.70;100.00
18509;BME280;9383;50.928;12.116;2022-11-20T08:10:36;98328.22;;;-2.51;100.00
18509;BME280;9383;50.928;12.116;2022-11-20T08:13:03;98336.13;;;-2.34;100.00
18509;BME280;9383;50.928;12.116;2022-11-20T08:15:50;98343.16;;;-2.18;100.00
18509;BME280;9383;50.928;12.116;2022-11-20T08:18:19;98342.41;;;-2.06;100.00
18509;BME280;9383;50.928;12.116;2022-11-20T08:20:46;98345.94;;;-1.91;100.00
18509;BME280;9383;50.928;12.116;2022-11-20T08:23:13;98344.28;;;-1.75;100.00
18509;BME280;9383;50.928;12.116;2022-11-20T08:25:40;98338.28;;;-1.60;100.00
18509;BME280;9383;50.928;12.116;2022-11-20T08:28:09;98337.47;;;-1.47;100.00
18509;BME280;9383;50.928;12.116;2022-11-20T08:30:36;98336.66;;;-1.35;100.00
18509;BME280;9383;50.928;12.116;2022-11-20T08:33:08;98334.91;;;-1.27;100.00
18509;BME280;9383;50.928;12.116;2022-11-20T08:35:36;98341.84;;;-1.32;99.42
18509;BME280;9383;50.928;12.116;2022-11-20T08:38:05;98339.22;;;-1.33;98.17
18509;BME280;9383;50.928;12.116;2022-11-20T08:40:32;98333.22;;;-1.24;96.75
18509;BME280;9383;50.928;12.116;2022-11-20T08:42:59;98346.19;;;-1.31;93.79
18509;BME280;9383;50.928;12.116;2022-11-20T08:45:25;98338.38;;;-1.31;92.32
18509;BME280;9383;50.928;12.116;2022-11-20T08:47:52;98344.41;;;-1.41;89.76
18509;BME280;9383;50.928;12.116;2022-11-20T08:50:18;98355.66;;;-1.50;86.90
18509;BME280;9383;50.928;12.116;2022-11-20T08:52:45;98368.56;;;-1.73;84.28
18509;BME280;9383;50.928;12.116;2022-11-20T08:55:11;98371.22;;;-1.56;85.69
18509;BME280;9383;50.928;12.116;2022-11-20T08:57:38;98360.88;;;-1.48;85.95
18509;BME280;9383;50.928;12.116;2022-11-20T09:00:07;98339.25;;;-1.38;86.51
18509;BME280;9383;50.928;12.116;2022-11-20T09:02:34;98332.34;;;-1.23;87.13
18509;BME280;9383;50.928;12.116;2022-11-20T09:05:03;98349.69;;;-1.16;87.71
18509;BME280;9383;50.928;12.116;2022-11-20T09:07:30;98349.72;;;-1.07;88.49
18509;BME280;9383;50.928;12.116;2022-11-20T09:09:57;98346.25;;;-0.95;88.33
18509;BME280;9383;50.928;12.116;2022-11-20T09:12:23;98348.03;;;-0.91;88.02
18509;BME280;9383;50.928;12.116;2022-11-20T09:14:50;98348.03;;;-0.81;87.31
18509;BME280;9383;50.928;12.116;2022-11-20T09:17:16;98351.44;;;-1.03;84.41
18509;BME280;9383;50.928;12.116;2022-11-20T09:19:43;98362.69;;;-1.25;83.23
18509;BME280;9383;50.928;12.116;2022-11-20T09:22:10;98359.13;;;-1.46;82.65
18509;BME280;9383;50.928;12.116;2022-11-20T09:24:36;98360.81;;;-1.59;82.84
18509;BME280;9383;50.928;12.116;2022-11-20T09:27:04;98369.44;;;-1.65;83.78
18509;BME280;9383;50.928;12.116;2022-11-20T09:29:31;98372.94;;;-1.60;84.33
18509;BME280;9383;50.928;12.116;2022-11-20T09:31:57;98382.50;;;-1.52;84.78
18509;BME280;9383;50.928;12.116;2022-11-20T09:34:24;98379.03;;;-1.54;84.69
18509;BME280;9383;50.928;12.116;2022-11-20T09:36:50;98374.81;;;-1.29;85.49
18509;BME280;9383;50.928;12.116;2022-11-20T09:39:17;98370.53;;;-1.10;85.82
18509;BME280;9383;50.928;12.116;2022-11-20T09:44:38;98353.25;;;-0.67;86.61
18509;BME280;9383;50.928;12.116;2022-11-20T09:47:08;98347.19;;;-0.54;86.40
18509;BME280;9383;50.928;12.116;2022-11-20T09:52:42;98331.56;;;-0.37;85.56
18509;BME280;9383;50.928;12.116;2022-11-20T09:55:17;98332.41;;;-0.35;84.97
18509;BME280;9383;50.928;12.116;2022-11-20T09:57:51;98340.25;;;-0.41;85.82
18509;BME280;9383;50.928;12.116;2022-11-20T10:00:19;98339.38;;;-0.37;86.55
18509;BME280;9383;50.928;12.116;2022-11-20T10:02:59;98336.78;;;-0.35;86.38
18509;BME280;9383;50.928;12.116;2022-11-20T10:05:44;98328.06;;;-0.28;86.43
18509;BME280;9383;50.928;12.116;2022-11-20T10:11:08;98320.28;;;-0.42;87.39
18509;BME280;9383;50.928;12.116;2022-11-20T10:16:39;98315.06;;;-0.42;86.41
18509;BME280;9383;50.928;12.116;2022-11-20T10:22:00;98310.72;;;-0.41;86.37
18509;BME280;9383;50.928;12.116;2022-11-20T10:30:08;98303.78;;;-0.33;87.25
18509;BME280;9383;50.928;12.116;2022-11-20T10:32:39;98298.56;;;-0.30;86.50
18509;BME280;9383;50.928;12.116;2022-11-20T10:35:20;98297.69;;;-0.41;86.73
18509;BME280;9383;50.928;12.116;2022-11-20T10:37:54;98300.31;;;-0.35;87.14
18509;BME280;9383;50.928;12.116;2022-11-20T10:40:35;98300.31;;;-0.41;87.45
18509;BME280;9383;50.928;12.116;2022-11-20T10:43:16;98304.63;;;-0.45;87.96
18509;BME280;9383;50.928;12.116;2022-11-20T10:46:00;98301.19;;;-0.46;89.10
18509;BME280;9383;50.928;12.116;2022-11-20T10:48:32;98294.25;;;-0.61;88.97
18509;BME280;9383;50.928;12.116;2022-11-20T10:51:21;98302.06;;;-0.79;89.67
18509;BME280;9383;50.928;12.116;2022-11-20T10:54:03;98294.25;;;-0.90;89.57
18509;BME280;9383;50.928;12.116;2022-11-20T11:02:19;98296.84;;;-0.82;89.83
18509;BME280;9383;50.928;12.116;2022-11-20T11:04:54;98299.44;;;-0.73;89.47
18509;BME280;9383;50.928;12.116;2022-11-20T11:07:35;98292.50;;;-0.59;89.51
18509;BME280;9383;50.928;12.116;2022-11-20T11:10:16;98289.91;;;-0.45;90.14
18509;BME280;9383;50.928;12.116;2022-11-20T11:12:46;98290.72;;;-0.32;90.10
18509;BME280;9383;50.928;12.116;2022-11-20T11:15:28;98281.19;;;-0.26;90.16
18509;BME280;9383;50.928;12.116;2022-11-20T11:17:55;98273.38;;;-0.23;89.99
18509;BME280;9383;50.928;12.116;2022-11-20T11:20:26;98275.97;;;-0.14;90.04
18509;BME280;9383;50.928;12.116;2022-11-20T11:22:58;98269.00;;;-0.07;89.43
18509;BME280;9383;50.928;12.116;2022-11-20T11:25:30;98262.00;;;-0.02;89.85
18509;BME280;9383;50.928;12.116;2022-11-20T11:28:21;98266.34;;;0.05;90.12
18509;BME280;9383;50.928;12.116;2022-11-20T11:30:48;98259.41;;;-0.01;90.61
18509;BME280;9383;50.928;12.116;2022-11-20T11:33:29;98258.56;;;-0.04;90.39
18509;BME280;9383;50.928;12.116;2022-11-20T11:36:18;98262.09;;;-0.27;91.18
18509;BME280;9383;50.928;12.116;2022-11-20T11:38:48;98258.66;;;-0.43;92.34
18509;BME280;9383;50.928;12.116;2022-11-20T11:41:23;98252.59;;;-0.53;93.37
18509;BME280;9383;50.928;12.116;2022-11-20T11:43:56;98250.84;;;-0.51;93.72
18509;BME280;9383;50.928;12.116;2022-11-20T11:47:23;98252.56;;;-0.45;94.00
18509;BME280;9383;50.928;12.116;2022-11-20T11:50:32;98245.66;;;-0.43;93.79
18509;BME280;9383;50.928;12.116;2022-11-20T11:56:09;98247.38;;;-0.61;95.97
18509;BME280;9383;50.928;12.116;2022-11-20T11:58:52;98246.56;;;-0.69;97.28
18509;BME280;9383;50.928;12.116;2022-11-20T12:01:59;98237.84;;;-0.60;96.51
18509;BME280;9383;50.928;12.116;2022-11-20T12:04:44;98230.03;;;-0.55;97.21
18509;BME280;9383;50.928;12.116;2022-11-20T12:10:02;98227.44;;;-0.57;98.10
18509;BME280;9383;50.928;12.116;2022-11-20T12:12:38;98221.38;;;-0.64;98.19
18509;BME280;9383;50.928;12.116;2022-11-20T12:15:12;98219.66;;;-0.69;99.10
18509;BME280;9383;50.928;12.116;2022-11-20T12:17:39;98222.25;;;-0.69;99.59
18509;BME280;9383;50.928;12.116;2022-11-20T12:20:14;98221.38;;;-0.65;99.64
18509;BME280;9383;50.928;12.116;2022-11-20T12:23:08;98224.81;;;-0.59;99.33
18509;BME280;9383;50.928;12.116;2022-11-20T12:25:41;98219.63;;;-0.54;98.99
18509;BME280;9383;50.928;12.116;2022-11-20T12:28:38;98209.19;;;-0.45;98.62
18509;BME280;9383;50.928;12.116;2022-11-20T12:31:41;98222.19;;;-0.41;98.82
18509;BME280;9383;50.928;12.116;2022-11-20T12:39:58;98210.03;;;-0.36;99.38
18509;BME280;9383;50.928;12.116;2022-11-20T12:42:40;98216.06;;;-0.28;99.99
18509;BME280;9383;50.928;12.116;2022-11-20T12:45:53;98206.53;;;-0.24;99.46
18509;BME280;9383;50.928;12.116;2022-11-20T12:51:46;98216.91;;;-0.15;100.00
18509;BME280;9383;50.928;12.116;2022-11-20T13:07:59;98213.28;;;0.23;98.91
18509;BME280;9383;50.928;12.116;2022-11-20T13:13:16;98214.97;;;0.32;97.71
18509;BME280;9383;50.928;12.116;2022-11-20T13:18:42;98229.72;;;0.38;97.99
18509;BME280;9383;50.928;12.116;2022-11-20T13:21:17;98231.44;;;0.40;97.54
18509;BME280;9383;50.928;12.116;2022-11-20T13:23:44;98224.50;;;0.39;97.38
18509;BME280;9383;50.928;12.116;2022-11-20T13:26:20;98222.75;;;0.41;97.42
18509;BME280;9383;50.928;12.116;2022-11-20T13:29:09;98221.00;;;0.44;97.66
18509;BME280;9383;50.928;12.116;2022-11-20T13:31:41;98223.59;;;0.44;97.01
18509;BME280;9383;50.928;12.116;2022-11-20T13:34:13;98213.16;;;0.44;97.48
18509;BME280;9383;50.928;12.116;2022-11-20T13:36:54;98226.19;;;0.42;96.90
18509;BME280;9383;50.928;12.116;2022-11-20T13:39:27;98225.38;;;0.38;97.26
18509;BME280;9383;50.928;12.116;2022-11-20T13:41:57;98229.72;;;0.38;97.36
18509;BME280;9383;50.928;12.116;2022-11-20T13:44:34;98221.88;;;0.36;96.61
18509;BME280;9383;50.928;12.116;2022-11-20T13:47:17;98220.16;;;0.31;97.53
18509;BME280;9383;50.928;12.116;2022-11-20T13:49:47;98209.81;;;0.26;97.74
18509;BME280;9383;50.928;12.116;2022-11-20T13:58:07;98209.75;;;0.32;97.79
18509;BME280;9383;50.928;12.116;2022-11-20T14:00:48;98206.25;;;0.33;97.27
18509;BME280;9383;50.928;12.116;2022-11-20T14:03:22;98207.13;;;0.35;97.38
18509;BME280;9383;50.928;12.116;2022-11-20T14:06:00;98212.34;;;0.35;97.44
18509;BME280;9383;50.928;12.116;2022-11-20T14:11:26;98208.84;;;0.39;97.85
18509;BME280;9383;50.928;12.116;2022-11-20T14:14:12;98205.38;;;0.39;97.80
18509;BME280;9383;50.928;12.116;2022-11-20T14:16:40;98203.63;;;0.39;97.79
18509;BME280;9383;50.928;12.116;2022-11-20T14:19:25;98209.69;;;0.40;97.01
18509;BME280;9383;50.928;12.116;2022-11-20T14:22:06;98205.38;;;0.40;96.91
18509;BME280;9383;50.928;12.116;2022-11-20T14:24:33;98203.63;;;0.39;97.17
18509;BME280;9383;50.928;12.116;2022-11-20T14:27:01;98208.84;;;0.39;97.24
18509;BME280;9383;50.928;12.116;2022-11-20T14:29:36;98210.56;;;0.37;96.54